sensor_id;sensor_type;location;lat;lon;timestamp;P1;durP1;ratioP1;P2;durP2;ratioP2
3249;SDS011;1637;42.020;23.992;2022-07-23T00:01:42;8.90;;;5.20;;
3249;SDS011;1637;42.020;23.992;2022-07-23T00:04:09;5.53;;;5.00;;
3249;SDS011;1637;42.020;23.992;2022-07-23T00:06:36;5.73;;;4.70;;
3249;SDS011;1637;42.020;23.992;2022-07-23T00:09:04;5.93;;;4.70;;
3249;SDS011;1637;42.020;23.992;2022-07-23T00:11:31;6.20;;;5.00;;
3249;SDS011;1637;42.020;23.992;2022-07-23T00:13:58;7.10;;;5.50;;
3249;SDS011;1637;42.020;23.992;2022-07-23T00:16:25;6.80;;;4.57;;
3249;SDS011;1637;42.020;23.992;2022-07-23T00:18:52;14.87;;;6.53;;
3249;SDS011;1637;42.020;23.992;2022-07-23T00:21:19;8.13;;;5.50;;
3249;SDS011;1637;42.020;23.992;2022-07-23T00:23:46;9.80;;;6.50;;
3249;SDS011;1637;42.020;23.992;2022-07-23T00:26:14;21.53;;;12.20;;
3249;SDS011;1637;42.020;23.992;2022-07-23T00:28:41;7.70;;;6.20;;
3249;SDS011;1637;42.020;23.992;2022-07-23T00:31:08;8.63;;;6.07;;
3249;SDS011;1637;42.020;23.992;2022-07-23T00:33:35;8.83;;;6.27;;
3249;SDS011;1637;42.020;23.992;2022-07-23T00:36:02;9.20;;;5.70;;
3249;SDS011;1637;42.020;23.992;2022-07-23T00:38:29;7.33;;;5.50;;
3249;SDS011;1637;42.020;23.992;2022-07-23T00:40:56;8.37;;;5.60;;
3249;SDS011;1637;42.020;23.992;2022-07-23T00:43:25;12.80;;;6.67;;
3249;SDS011;1637;42.020;23.992;2022-07-23T00:45:51;16.40;;;10.80;;
3249;SDS011;1637;42.020;23.992;2022-07-23T00:48:18;13.93;;;9.03;;
3249;SDS011;1637;42.020;23.992;2022-07-23T00:50:45;21.57;;;9.50;;
3249;SDS011;1637;42.020;23.992;2022-07-23T00:53:12;16.40;;;9.90;;
3249;SDS011;1637;42.020;23.992;2022-07-23T00:55:39;11.17;;;7.03;;
3249;SDS011;1637;42.020;23.992;2022-07-23T00:58:06;16.67;;;10.20;;
3249;SDS011;1637;42.020;23.992;2022-07-23T01:00:36;55.10;;;27.43;;
3249;SDS011;1637;42.020;23.992;2022-07-23T01:03:03;21.97;;;13.20;;
3249;SDS011;1637;42.020;23.992;2022-07-23T01:05:30;10.43;;;8.40;;
3249;SDS011;1637;42.020;23.992;2022-07-23T01:07:57;18.90;;;12.53;;
3249;SDS011;1637;42.020;23.992;2022-07-23T01:10:24;9.47;;;7.93;;
3249;SDS011;1637;42.020;23.992;2022-07-23T01:12:58;12.53;;;9.20;;
3249;SDS011;1637;42.020;23.992;2022-07-23T01:15:26;11.83;;;7.77;;
3249;SDS011;1637;42.020;23.992;2022-07-23T01:17:54;12.67;;;7.67;;
3249;SDS011;1637;42.020;23.992;2022-07-23T01:20:22;12.60;;;6.17;;
3249;SDS011;1637;42.020;23.992;2022-07-23T01:22:50;13.13;;;7.17;;
3249;SDS011;1637;42.020;23.992;2022-07-23T01:25:18;8.70;;;6.33;;
3249;SDS011;1637;42.020;23.992;2022-07-23T01:27:45;13.57;;;6.97;;
3249;SDS011;1637;42.020;23.992;2022-07-23T01:30:12;11.70;;;6.33;;
3249;SDS011;1637;42.020;23.992;2022-07-23T01:32:39;8.53;;;6.40;;
3249;SDS011;1637;42.020;23.992;2022-07-23T01:35:07;7.37;;;6.20;;
3249;SDS011;1637;42.020;23.992;2022-07-23T01:37:36;10.63;;;7.60;;
3249;SDS011;1637;42.020;23.992;2022-07-23T01:40:05;10.67;;;6.87;;
3249;SDS011;1637;42.020;23.992;2022-07-23T01:42:33;21.13;;;13.43;;
3249;SDS011;1637;42.020;23.992;2022-07-23T01:45:01;14.60;;;10.10;;
3249;SDS011;1637;42.020;23.992;2022-07-23T01:47:29;15.37;;;11.50;;
3249;SDS011;1637;42.020;23.992;2022-07-23T01:49:56;17.43;;;11.30;;
3249;SDS011;1637;42.020;23.992;2022-07-23T01:52:23;18.50;;;12.10;;
3249;SDS011;1637;42.020;23.992;2022-07-23T01:54:50;19.60;;;13.80;;
3249;SDS011;1637;42.020;23.992;2022-07-23T01:57:18;20.27;;;13.57;;
3249;SDS011;1637;42.020;23.992;2022-07-23T01:59:45;20.43;;;13.10;;
3249;SDS011;1637;42.020;23.992;2022-07-23T02:02:12;17.23;;;10.53;;
3249;SDS011;1637;42.020;23.992;2022-07-23T02:04:39;16.97;;;10.50;;
3249;SDS011;1637;42.020;23.992;2022-07-23T02:07:06;11.80;;;8.23;;
3249;SDS011;1637;42.020;23.992;2022-07-23T02:09:33;15.57;;;9.60;;
3249;SDS011;1637;42.020;23.992;2022-07-23T02:12:00;22.17;;;13.93;;
3249;SDS011;1637;42.020;23.992;2022-07-23T02:14:29;20.60;;;13.30;;
3249;SDS011;1637;42.020;23.992;2022-07-23T02:16:56;20.07;;;13.23;;
3249;SDS011;1637;42.020;23.992;2022-07-23T02:19:22;21.47;;;13.63;;
3249;SDS011;1637;42.020;23.992;2022-07-23T02:21:49;18.97;;;13.67;;
3249;SDS011;1637;42.020;23.992;2022-07-23T02:24:17;26.33;;;13.70;;
3249;SDS011;1637;42.020;23.992;2022-07-23T02:26:44;21.73;;;13.73;;
3249;SDS011;1637;42.020;23.992;2022-07-23T02:29:11;42.03;;;23.47;;
3249;SDS011;1637;42.020;23.992;2022-07-23T02:31:39;35.97;;;19.67;;
3249;SDS011;1637;42.020;23.992;2022-07-23T02:34:06;15.13;;;10.67;;
3249;SDS011;1637;42.020;23.992;2022-07-23T02:36:36;21.43;;;9.40;;
3249;SDS011;1637;42.020;23.992;2022-07-23T02:39:03;14.83;;;9.70;;
3249;SDS011;1637;42.020;23.992;2022-07-23T02:41:30;15.27;;;9.70;;
3249;SDS011;1637;42.020;23.992;2022-07-23T02:43:57;12.63;;;10.30;;
3249;SDS011;1637;42.020;23.992;2022-07-23T02:46:24;22.33;;;13.90;;
3249;SDS011;1637;42.020;23.992;2022-07-23T02:48:52;15.97;;;10.63;;
3249;SDS011;1637;42.020;23.992;2022-07-23T02:51:19;17.90;;;10.20;;
3249;SDS011;1637;42.020;23.992;2022-07-23T02:53:46;90.77;;;47.23;;
3249;SDS011;1637;42.020;23.992;2022-07-23T02:56:13;33.13;;;21.43;;
3249;SDS011;1637;42.020;23.992;2022-07-23T02:58:40;21.23;;;15.07;;
3249;SDS011;1637;42.020;23.992;2022-07-23T03:01:07;13.37;;;11.90;;
3249;SDS011;1637;42.020;23.992;2022-07-23T03:03:34;13.00;;;6.60;;
3249;SDS011;1637;42.020;23.992;2022-07-23T03:06:02;12.10;;;8.80;;
3249;SDS011;1637;42.020;23.992;2022-07-23T03:08:29;13.10;;;7.77;;
3249;SDS011;1637;42.020;23.992;2022-07-23T03:10:56;11.73;;;7.37;;
3249;SDS011;1637;42.020;23.992;2022-07-23T03:13:23;10.27;;;8.80;;
3249;SDS011;1637;42.020;23.992;2022-07-23T03:15:50;16.73;;;9.73;;
3249;SDS011;1637;42.020;23.992;2022-07-23T03:18:16;15.20;;;10.07;;
3249;SDS011;1637;42.020;23.992;2022-07-23T03:20:43;15.23;;;10.30;;
3249;SDS011;1637;42.020;23.992;2022-07-23T03:23:12;13.27;;;8.00;;
3249;SDS011;1637;42.020;23.992;2022-07-23T03:25:38;12.87;;;7.30;;
3249;SDS011;1637;42.020;23.992;2022-07-23T03:28:05;14.83;;;7.80;;
3249;SDS011;1637;42.020;23.992;2022-07-23T03:30:32;16.20;;;11.77;;
3249;SDS011;1637;42.020;23.992;2022-07-23T03:32:59;10.20;;;7.53;;
3249;SDS011;1637;42.020;23.992;2022-07-23T03:35:26;8.93;;;7.40;;
3249;SDS011;1637;42.020;23.992;2022-07-23T03:37:53;14.37;;;9.17;;
3249;SDS011;1637;42.020;23.992;2022-07-23T03:40:21;19.10;;;10.20;;
3249;SDS011;1637;42.020;23.992;2022-07-23T03:42:48;15.00;;;10.33;;
3249;SDS011;1637;42.020;23.992;2022-07-23T03:45:15;14.20;;;10.63;;
3249;SDS011;1637;42.020;23.992;2022-07-23T03:47:42;22.40;;;12.23;;
3249;SDS011;1637;42.020;23.992;2022-07-23T03:50:09;22.20;;;9.27;;
3249;SDS011;1637;42.020;23.992;2022-07-23T03:52:37;10.63;;;7.47;;
3249;SDS011;1637;42.020;23.992;2022-07-23T03:55:04;16.00;;;9.93;;
3249;SDS011;1637;42.020;23.992;2022-07-23T03:57:33;15.13;;;7.70;;
3249;SDS011;1637;42.020;23.992;2022-07-23T04:00:00;8.30;;;6.87;;
3249;SDS011;1637;42.020;23.992;2022-07-23T04:02:27;8.50;;;6.43;;
3249;SDS011;1637;42.020;23.992;2022-07-23T04:04:54;8.73;;;6.30;;
3249;SDS011;1637;42.020;23.992;2022-07-23T04:07:21;11.87;;;7.90;;
3249;SDS011;1637;42.020;23.992;2022-07-23T04:09:48;14.00;;;11.00;;
3249;SDS011;1637;42.020;23.992;2022-07-23T04:12:15;18.37;;;12.03;;
3249;SDS011;1637;42.020;23.992;2022-07-23T04:14:43;12.50;;;10.10;;
3249;SDS011;1637;42.020;23.992;2022-07-23T04:17:11;12.13;;;7.53;;
3249;SDS011;1637;42.020;23.992;2022-07-23T04:19:38;17.50;;;10.53;;
3249;SDS011;1637;42.020;23.992;2022-07-23T04:22:06;14.93;;;7.70;;
3249;SDS011;1637;42.020;23.992;2022-07-23T04:24:33;13.20;;;7.73;;
3249;SDS011;1637;42.020;23.992;2022-07-23T04:27:00;10.07;;;7.13;;
3249;SDS011;1637;42.020;23.992;2022-07-23T04:29:27;14.90;;;9.00;;
3249;SDS011;1637;42.020;23.992;2022-07-23T04:31:55;12.63;;;8.77;;
3249;SDS011;1637;42.020;23.992;2022-07-23T04:34:23;12.13;;;9.50;;
3249;SDS011;1637;42.020;23.992;2022-07-23T04:36:51;10.60;;;8.23;;
3249;SDS011;1637;42.020;23.992;2022-07-23T04:39:18;14.00;;;9.03;;
3249;SDS011;1637;42.020;23.992;2022-07-23T04:41:45;10.40;;;9.07;;
3249;SDS011;1637;42.020;23.992;2022-07-23T04:44:12;9.60;;;7.97;;
3249;SDS011;1637;42.020;23.992;2022-07-23T04:46:39;13.13;;;8.47;;
3249;SDS011;1637;42.020;23.992;2022-07-23T04:49:08;9.00;;;7.90;;
3249;SDS011;1637;42.020;23.992;2022-07-23T04:51:34;17.63;;;8.73;;
3249;SDS011;1637;42.020;23.992;2022-07-23T04:54:01;15.67;;;8.70;;
3249;SDS011;1637;42.020;23.992;2022-07-23T04:56:28;23.70;;;11.00;;
3249;SDS011;1637;42.020;23.992;2022-07-23T04:58:55;12.10;;;10.00;;
3249;SDS011;1637;42.020;23.992;2022-07-23T05:01:22;14.70;;;9.67;;
3249;SDS011;1637;42.020;23.992;2022-07-23T05:03:49;22.93;;;18.30;;
3249;SDS011;1637;42.020;23.992;2022-07-23T05:06:17;15.90;;;12.73;;
3249;SDS011;1637;42.020;23.992;2022-07-23T05:08:44;14.57;;;10.30;;
3249;SDS011;1637;42.020;23.992;2022-07-23T05:11:11;10.93;;;8.63;;
3249;SDS011;1637;42.020;23.992;2022-07-23T05:13:38;14.80;;;8.87;;
3249;SDS011;1637;42.020;23.992;2022-07-23T05:16:05;9.87;;;8.57;;
3249;SDS011;1637;42.020;23.992;2022-07-23T05:18:32;13.20;;;9.53;;
3249;SDS011;1637;42.020;23.992;2022-07-23T05:20:59;13.27;;;9.90;;
3249;SDS011;1637;42.020;23.992;2022-07-23T05:23:27;13.10;;;9.60;;
3249;SDS011;1637;42.020;23.992;2022-07-23T05:25:54;13.10;;;7.90;;
3249;SDS011;1637;42.020;23.992;2022-07-23T05:28:21;12.73;;;7.83;;
3249;SDS011;1637;42.020;23.992;2022-07-23T05:30:47;16.23;;;7.97;;
3249;SDS011;1637;42.020;23.992;2022-07-23T05:33:14;10.70;;;8.00;;
3249;SDS011;1637;42.020;23.992;2022-07-23T05:35:41;15.90;;;8.30;;
3249;SDS011;1637;42.020;23.992;2022-07-23T05:38:08;22.60;;;12.10;;
3249;SDS011;1637;42.020;23.992;2022-07-23T05:40:36;10.90;;;8.23;;
3249;SDS011;1637;42.020;23.992;2022-07-23T05:43:03;14.93;;;9.20;;
3249;SDS011;1637;42.020;23.992;2022-07-23T05:45:30;11.80;;;7.50;;
3249;SDS011;1637;42.020;23.992;2022-07-23T05:47:57;12.10;;;8.00;;
3249;SDS011;1637;42.020;23.992;2022-07-23T05:50:24;8.50;;;7.60;;
3249;SDS011;1637;42.020;23.992;2022-07-23T05:52:51;9.40;;;8.40;;
3249;SDS011;1637;42.020;23.992;2022-07-23T05:55:18;9.80;;;7.73;;
3249;SDS011;1637;42.020;23.992;2022-07-23T05:57:46;13.70;;;8.60;;
3249;SDS011;1637;42.020;23.992;2022-07-23T06:00:13;13.97;;;8.93;;
3249;SDS011;1637;42.020;23.992;2022-07-23T06:02:40;19.03;;;12.13;;
3249;SDS011;1637;42.020;23.992;2022-07-23T06:05:07;14.63;;;10.33;;
3249;SDS011;1637;42.020;23.992;2022-07-23T06:07:35;11.60;;;9.90;;
3249;SDS011;1637;42.020;23.992;2022-07-23T06:10:02;31.13;;;17.30;;
3249;SDS011;1637;42.020;23.992;2022-07-23T06:12:30;12.57;;;10.87;;
3249;SDS011;1637;42.020;23.992;2022-07-23T06:14:58;14.87;;;9.67;;
3249;SDS011;1637;42.020;23.992;2022-07-23T06:17:25;12.77;;;9.90;;
3249;SDS011;1637;42.020;23.992;2022-07-23T06:19:53;19.97;;;9.03;;
3249;SDS011;1637;42.020;23.992;2022-07-23T06:22:20;12.70;;;8.43;;
3249;SDS011;1637;42.020;23.992;2022-07-23T06:24:47;17.77;;;10.57;;
3249;SDS011;1637;42.020;23.992;2022-07-23T06:27:14;16.53;;;10.70;;
3249;SDS011;1637;42.020;23.992;2022-07-23T06:29:41;17.63;;;8.40;;
3249;SDS011;1637;42.020;23.992;2022-07-23T06:32:09;11.67;;;9.27;;
3249;SDS011;1637;42.020;23.992;2022-07-23T06:34:36;13.67;;;9.07;;
3249;SDS011;1637;42.020;23.992;2022-07-23T06:37:03;8.50;;;7.60;;
3249;SDS011;1637;42.020;23.992;2022-07-23T06:39:30;15.93;;;7.70;;
3249;SDS011;1637;42.020;23.992;2022-07-23T06:41:57;14.43;;;6.73;;
3249;SDS011;1637;42.020;23.992;2022-07-23T06:44:24;11.40;;;7.70;;
3249;SDS011;1637;42.020;23.992;2022-07-23T06:46:51;8.70;;;7.13;;
3249;SDS011;1637;42.020;23.992;2022-07-23T06:49:19;9.47;;;7.50;;
3249;SDS011;1637;42.020;23.992;2022-07-23T06:51:46;11.20;;;7.10;;
3249;SDS011;1637;42.020;23.992;2022-07-23T06:54:13;10.07;;;6.60;;
3249;SDS011;1637;42.020;23.992;2022-07-23T06:56:40;13.43;;;10.60;;
3249;SDS011;1637;42.020;23.992;2022-07-23T06:59:08;11.10;;;10.00;;
3249;SDS011;1637;42.020;23.992;2022-07-23T07:01:35;12.10;;;8.03;;
3249;SDS011;1637;42.020;23.992;2022-07-23T07:04:02;13.20;;;7.30;;
3249;SDS011;1637;42.020;23.992;2022-07-23T07:06:30;13.63;;;6.20;;
3249;SDS011;1637;42.020;23.992;2022-07-23T07:08:57;14.70;;;8.33;;
3249;SDS011;1637;42.020;23.992;2022-07-23T07:11:24;12.50;;;6.87;;
3249;SDS011;1637;42.020;23.992;2022-07-23T07:13:51;14.27;;;6.53;;
3249;SDS011;1637;42.020;23.992;2022-07-23T07:16:18;10.63;;;5.18;;
3249;SDS011;1637;42.020;23.992;2022-07-23T07:18:45;13.10;;;6.77;;
3249;SDS011;1637;42.020;23.992;2022-07-23T07:21:12;13.90;;;7.38;;
3249;SDS011;1637;42.020;23.992;2022-07-23T07:23:40;11.75;;;7.38;;
3249;SDS011;1637;42.020;23.992;2022-07-23T07:26:07;41.30;;;16.10;;
3249;SDS011;1637;42.020;23.992;2022-07-23T07:28:34;18.17;;;11.93;;
3249;SDS011;1637;42.020;23.992;2022-07-23T07:31:01;7.38;;;4.90;;
3249;SDS011;1637;42.020;23.992;2022-07-23T07:33:28;9.90;;;5.55;;
3249;SDS011;1637;42.020;23.992;2022-07-23T07:35:55;5.25;;;4.75;;
3249;SDS011;1637;42.020;23.992;2022-07-23T07:38:22;10.15;;;5.25;;
3249;SDS011;1637;42.020;23.992;2022-07-23T07:40:50;7.28;;;5.07;;
3249;SDS011;1637;42.020;23.992;2022-07-23T07:43:17;15.77;;;9.95;;
3249;SDS011;1637;42.020;23.992;2022-07-23T07:45:44;7.05;;;5.30;;
3249;SDS011;1637;42.020;23.992;2022-07-23T07:48:11;13.98;;;7.93;;
3249;SDS011;1637;42.020;23.992;2022-07-23T07:50:38;13.57;;;5.28;;
3249;SDS011;1637;42.020;23.992;2022-07-23T07:53:05;8.90;;;6.55;;
3249;SDS011;1637;42.020;23.992;2022-07-23T07:55:32;16.60;;;6.03;;
3249;SDS011;1637;42.020;23.992;2022-07-23T07:58:00;8.32;;;5.72;;
3249;SDS011;1637;42.020;23.992;2022-07-23T08:00:27;15.85;;;6.65;;
3249;SDS011;1637;42.020;23.992;2022-07-23T08:02:54;16.00;;;5.88;;
3249;SDS011;1637;42.020;23.992;2022-07-23T08:05:22;9.27;;;5.55;;
3249;SDS011;1637;42.020;23.992;2022-07-23T08:07:50;8.40;;;5.45;;
3249;SDS011;1637;42.020;23.992;2022-07-23T08:10:17;8.80;;;5.63;;
3249;SDS011;1637;42.020;23.992;2022-07-23T08:12:45;6.82;;;4.85;;
3249;SDS011;1637;42.020;23.992;2022-07-23T08:15:15;6.03;;;5.32;;
3249;SDS011;1637;42.020;23.992;2022-07-23T08:17:43;11.80;;;5.72;;
3249;SDS011;1637;42.020;23.992;2022-07-23T08:20:12;13.00;;;5.07;;
3249;SDS011;1637;42.020;23.992;2022-07-23T08:22:47;7.50;;;4.70;;
3249;SDS011;1637;42.020;23.992;2022-07-23T08:25:15;9.65;;;4.55;;
3249;SDS011;1637;42.020;23.992;2022-07-23T08:27:45;11.32;;;5.60;;
3249;SDS011;1637;42.020;23.992;2022-07-23T08:30:15;10.35;;;5.50;;
3249;SDS011;1637;42.020;23.992;2022-07-23T08:32:53;14.65;;;6.30;;
3249;SDS011;1637;42.020;23.992;2022-07-23T08:35:22;4.30;;;3.90;;
3249;SDS011;1637;42.020;23.992;2022-07-23T08:37:50;8.75;;;5.47;;
3249;SDS011;1637;42.020;23.992;2022-07-23T08:40:17;5.07;;;3.88;;
3249;SDS011;1637;42.020;23.992;2022-07-23T08:42:46;6.35;;;4.10;;
3249;SDS011;1637;42.020;23.992;2022-07-23T08:45:17;7.03;;;4.03;;
3249;SDS011;1637;42.020;23.992;2022-07-23T08:47:47;8.73;;;5.10;;
3249;SDS011;1637;42.020;23.992;2022-07-23T08:50:15;4.40;;;4.00;;
3249;SDS011;1637;42.020;23.992;2022-07-23T08:52:42;8.68;;;4.22;;
3249;SDS011;1637;42.020;23.992;2022-07-23T08:55:10;8.27;;;4.68;;
3249;SDS011;1637;42.020;23.992;2022-07-23T08:57:38;11.60;;;4.25;;
3249;SDS011;1637;42.020;23.992;2022-07-23T09:00:05;5.97;;;4.35;;
3249;SDS011;1637;42.020;23.992;2022-07-23T09:02:39;22.15;;;13.23;;
3249;SDS011;1637;42.020;23.992;2022-07-23T09:05:07;6.30;;;4.10;;
3249;SDS011;1637;42.020;23.992;2022-07-23T09:07:36;6.53;;;4.20;;
3249;SDS011;1637;42.020;23.992;2022-07-23T09:10:07;15.43;;;4.88;;
3249;SDS011;1637;42.020;23.992;2022-07-23T09:12:35;7.53;;;4.40;;
3249;SDS011;1637;42.020;23.992;2022-07-23T09:15:06;8.60;;;3.95;;
3249;SDS011;1637;42.020;23.992;2022-07-23T09:17:40;9.20;;;4.20;;
3249;SDS011;1637;42.020;23.992;2022-07-23T09:20:09;7.15;;;3.72;;
3249;SDS011;1637;42.020;23.992;2022-07-23T09:22:37;7.30;;;3.90;;
3249;SDS011;1637;42.020;23.992;2022-07-23T09:25:06;18.20;;;7.07;;
3249;SDS011;1637;42.020;23.992;2022-07-23T09:27:49;14.20;;;4.20;;
3249;SDS011;1637;42.020;23.992;2022-07-23T09:30:18;7.15;;;3.95;;
3249;SDS011;1637;42.020;23.992;2022-07-23T09:35:43;11.20;;;3.78;;
3249;SDS011;1637;42.020;23.992;2022-07-23T09:38:12;7.07;;;4.22;;
3249;SDS011;1637;42.020;23.992;2022-07-23T09:40:39;15.38;;;4.57;;
3249;SDS011;1637;42.020;23.992;2022-07-23T09:43:06;9.45;;;3.67;;
3249;SDS011;1637;42.020;23.992;2022-07-23T09:45:33;8.63;;;4.10;;
3249;SDS011;1637;42.020;23.992;2022-07-23T09:48:12;9.38;;;4.28;;
3249;SDS011;1637;42.020;23.992;2022-07-23T09:50:40;7.10;;;3.35;;
3249;SDS011;1637;42.020;23.992;2022-07-23T09:53:07;8.77;;;3.80;;
3249;SDS011;1637;42.020;23.992;2022-07-23T09:55:35;9.35;;;3.30;;
3249;SDS011;1637;42.020;23.992;2022-07-23T09:58:03;17.33;;;4.10;;
3249;SDS011;1637;42.020;23.992;2022-07-23T10:00:32;10.68;;;4.10;;
3249;SDS011;1637;42.020;23.992;2022-07-23T10:02:59;8.52;;;3.95;;
3249;SDS011;1637;42.020;23.992;2022-07-23T10:05:28;9.52;;;4.30;;
3249;SDS011;1637;42.020;23.992;2022-07-23T10:07:56;12.07;;;3.97;;
3249;SDS011;1637;42.020;23.992;2022-07-23T10:10:27;8.98;;;3.80;;
3249;SDS011;1637;42.020;23.992;2022-07-23T10:12:55;6.90;;;3.97;;
3249;SDS011;1637;42.020;23.992;2022-07-23T10:15:41;12.82;;;5.28;;
3249;SDS011;1637;42.020;23.992;2022-07-23T10:18:10;12.52;;;6.10;;
3249;SDS011;1637;42.020;23.992;2022-07-23T10:20:39;10.88;;;4.13;;
3249;SDS011;1637;42.020;23.992;2022-07-23T10:23:09;7.90;;;4.78;;
3249;SDS011;1637;42.020;23.992;2022-07-23T10:25:41;13.50;;;4.03;;
3249;SDS011;1637;42.020;23.992;2022-07-23T10:28:20;20.50;;;5.38;;
3249;SDS011;1637;42.020;23.992;2022-07-23T10:31:00;12.40;;;4.35;;
3249;SDS011;1637;42.020;23.992;2022-07-23T10:33:33;16.08;;;5.63;;
3249;SDS011;1637;42.020;23.992;2022-07-23T10:36:11;8.98;;;3.75;;
3249;SDS011;1637;42.020;23.992;2022-07-23T10:38:47;15.50;;;4.45;;
3249;SDS011;1637;42.020;23.992;2022-07-23T10:41:30;8.32;;;4.43;;
3249;SDS011;1637;42.020;23.992;2022-07-23T10:44:07;8.48;;;4.30;;
3249;SDS011;1637;42.020;23.992;2022-07-23T10:46:35;12.35;;;4.13;;
3249;SDS011;1637;42.020;23.992;2022-07-23T10:49:22;16.70;;;4.82;;
3249;SDS011;1637;42.020;23.992;2022-07-23T10:54:45;18.65;;;4.68;;
3249;SDS011;1637;42.020;23.992;2022-07-23T10:57:14;14.38;;;4.38;;
3249;SDS011;1637;42.020;23.992;2022-07-23T11:02:45;10.93;;;4.68;;
3249;SDS011;1637;42.020;23.992;2022-07-23T11:05:13;13.27;;;4.05;;
3249;SDS011;1637;42.020;23.992;2022-07-23T11:10:46;9.93;;;3.78;;
3249;SDS011;1637;42.020;23.992;2022-07-23T11:16:05;11.38;;;4.45;;
3249;SDS011;1637;42.020;23.992;2022-07-23T11:18:59;8.05;;;4.55;;
3249;SDS011;1637;42.020;23.992;2022-07-23T11:21:42;15.75;;;5.18;;
3249;SDS011;1637;42.020;23.992;2022-07-23T11:24:12;10.20;;;3.35;;
3249;SDS011;1637;42.020;23.992;2022-07-23T11:26:42;19.02;;;5.43;;
3249;SDS011;1637;42.020;23.992;2022-07-23T11:32:24;10.88;;;5.18;;
3249;SDS011;1637;42.020;23.992;2022-07-23T11:35:24;21.63;;;3.97;;
3249;SDS011;1637;42.020;23.992;2022-07-23T11:37:53;12.45;;;4.03;;
3249;SDS011;1637;42.020;23.992;2022-07-23T11:40:25;12.15;;;3.83;;
3249;SDS011;1637;42.020;23.992;2022-07-23T11:42:57;8.93;;;4.40;;
3249;SDS011;1637;42.020;23.992;2022-07-23T11:45:26;7.55;;;3.53;;
3249;SDS011;1637;42.020;23.992;2022-07-23T11:47:57;9.75;;;4.47;;
3249;SDS011;1637;42.020;23.992;2022-07-23T11:50:24;14.48;;;3.97;;
3249;SDS011;1637;42.020;23.992;2022-07-23T11:52:52;7.07;;;3.42;;
3249;SDS011;1637;42.020;23.992;2022-07-23T11:55:20;13.15;;;3.90;;
3249;SDS011;1637;42.020;23.992;2022-07-23T11:57:50;13.35;;;4.50;;
3249;SDS011;1637;42.020;23.992;2022-07-23T12:00:19;8.90;;;3.83;;
3249;SDS011;1637;42.020;23.992;2022-07-23T12:02:48;13.55;;;4.68;;
3249;SDS011;1637;42.020;23.992;2022-07-23T12:05:31;13.50;;;4.65;;
3249;SDS011;1637;42.020;23.992;2022-07-23T12:08:00;27.13;;;4.30;;
3249;SDS011;1637;42.020;23.992;2022-07-23T12:10:30;16.00;;;4.95;;
3249;SDS011;1637;42.020;23.992;2022-07-23T12:13:03;10.23;;;4.47;;
3249;SDS011;1637;42.020;23.992;2022-07-23T12:15:32;11.43;;;3.50;;
3249;SDS011;1637;42.020;23.992;2022-07-23T12:18:03;9.40;;;3.97;;
3249;SDS011;1637;42.020;23.992;2022-07-23T12:20:31;11.52;;;4.32;;
3249;SDS011;1637;42.020;23.992;2022-07-23T12:23:00;14.88;;;3.60;;
3249;SDS011;1637;42.020;23.992;2022-07-23T12:25:29;12.05;;;4.10;;
3249;SDS011;1637;42.020;23.992;2022-07-23T12:27:58;14.32;;;3.95;;
3249;SDS011;1637;42.020;23.992;2022-07-23T12:30:29;15.48;;;3.90;;
3249;SDS011;1637;42.020;23.992;2022-07-23T12:32:57;17.10;;;4.32;;
3249;SDS011;1637;42.020;23.992;2022-07-23T12:35:30;7.68;;;3.50;;
3249;SDS011;1637;42.020;23.992;2022-07-23T12:38:00;16.65;;;4.68;;
3249;SDS011;1637;42.020;23.992;2022-07-23T12:40:28;13.75;;;3.50;;
3249;SDS011;1637;42.020;23.992;2022-07-23T12:42:58;17.70;;;4.90;;
3249;SDS011;1637;42.020;23.992;2022-07-23T12:45:26;12.50;;;3.95;;
3249;SDS011;1637;42.020;23.992;2022-07-23T12:47:56;14.18;;;3.80;;
3249;SDS011;1637;42.020;23.992;2022-07-23T12:53:17;15.70;;;3.88;;
3249;SDS011;1637;42.020;23.992;2022-07-23T12:55:46;19.40;;;4.15;;
3249;SDS011;1637;42.020;23.992;2022-07-23T12:58:15;14.98;;;4.75;;
3249;SDS011;1637;42.020;23.992;2022-07-23T13:00:54;21.35;;;4.80;;
3249;SDS011;1637;42.020;23.992;2022-07-23T13:03:26;12.10;;;4.00;;
3249;SDS011;1637;42.020;23.992;2022-07-23T13:05:55;12.57;;;4.03;;
3249;SDS011;1637;42.020;23.992;2022-07-23T13:08:23;15.13;;;4.68;;
3249;SDS011;1637;42.020;23.992;2022-07-23T13:10:51;15.50;;;4.53;;
3249;SDS011;1637;42.020;23.992;2022-07-23T13:13:20;7.45;;;3.92;;
3249;SDS011;1637;42.020;23.992;2022-07-23T13:15:48;11.25;;;4.72;;
3249;SDS011;1637;42.020;23.992;2022-07-23T13:18:19;12.25;;;4.43;;
3249;SDS011;1637;42.020;23.992;2022-07-23T13:20:48;11.45;;;4.22;;
3249;SDS011;1637;42.020;23.992;2022-07-23T13:23:15;11.60;;;4.53;;
3249;SDS011;1637;42.020;23.992;2022-07-23T13:25:43;14.63;;;3.90;;
3249;SDS011;1637;42.020;23.992;2022-07-23T13:28:10;14.93;;;3.47;;
3249;SDS011;1637;42.020;23.992;2022-07-23T13:30:38;10.13;;;3.90;;
3249;SDS011;1637;42.020;23.992;2022-07-23T13:33:05;11.05;;;3.80;;
3249;SDS011;1637;42.020;23.992;2022-07-23T13:35:33;11.55;;;3.65;;
3249;SDS011;1637;42.020;23.992;2022-07-23T13:38:01;11.02;;;3.65;;
3249;SDS011;1637;42.020;23.992;2022-07-23T13:40:28;23.85;;;4.70;;
3249;SDS011;1637;42.020;23.992;2022-07-23T13:42:56;15.93;;;4.45;;
3249;SDS011;1637;42.020;23.992;2022-07-23T13:45:23;6.55;;;3.88;;
3249;SDS011;1637;42.020;23.992;2022-07-23T13:47:49;13.82;;;3.83;;
3249;SDS011;1637;42.020;23.992;2022-07-23T13:50:16;12.93;;;4.22;;
3249;SDS011;1637;42.020;23.992;2022-07-23T13:52:43;9.73;;;4.05;;
3249;SDS011;1637;42.020;23.992;2022-07-23T13:55:14;11.93;;;4.10;;
3249;SDS011;1637;42.020;23.992;2022-07-23T13:57:41;15.52;;;4.97;;
3249;SDS011;1637;42.020;23.992;2022-07-23T14:00:08;16.30;;;4.55;;
3249;SDS011;1637;42.020;23.992;2022-07-23T14:02:37;11.60;;;4.30;;
3249;SDS011;1637;42.020;23.992;2022-07-23T14:05:05;11.48;;;5.05;;
3249;SDS011;1637;42.020;23.992;2022-07-23T14:07:35;11.07;;;4.03;;
3249;SDS011;1637;42.020;23.992;2022-07-23T14:10:03;9.13;;;4.07;;
3249;SDS011;1637;42.020;23.992;2022-07-23T14:12:32;12.73;;;4.10;;
3249;SDS011;1637;42.020;23.992;2022-07-23T14:14:59;14.10;;;4.60;;
3249;SDS011;1637;42.020;23.992;2022-07-23T14:17:27;12.70;;;5.07;;
3249;SDS011;1637;42.020;23.992;2022-07-23T14:19:54;12.45;;;4.20;;
3249;SDS011;1637;42.020;23.992;2022-07-23T14:22:21;17.20;;;4.55;;
3249;SDS011;1637;42.020;23.992;2022-07-23T14:24:48;22.30;;;4.97;;
3249;SDS011;1637;42.020;23.992;2022-07-23T14:27:15;16.08;;;4.95;;
3249;SDS011;1637;42.020;23.992;2022-07-23T14:29:44;13.50;;;3.85;;
3249;SDS011;1637;42.020;23.992;2022-07-23T14:32:11;12.30;;;3.85;;
3249;SDS011;1637;42.020;23.992;2022-07-23T14:34:38;14.48;;;4.47;;
3249;SDS011;1637;42.020;23.992;2022-07-23T14:37:05;20.60;;;4.53;;
3249;SDS011;1637;42.020;23.992;2022-07-23T14:39:32;21.50;;;4.03;;
3249;SDS011;1637;42.020;23.992;2022-07-23T14:42:00;15.90;;;5.20;;
3249;SDS011;1637;42.020;23.992;2022-07-23T14:44:27;19.67;;;4.75;;
3249;SDS011;1637;42.020;23.992;2022-07-23T14:46:56;12.25;;;4.03;;
3249;SDS011;1637;42.020;23.992;2022-07-23T14:49:23;11.60;;;4.35;;
3249;SDS011;1637;42.020;23.992;2022-07-23T14:51:49;18.08;;;4.38;;
3249;SDS011;1637;42.020;23.992;2022-07-23T14:54:16;16.20;;;4.15;;
3249;SDS011;1637;42.020;23.992;2022-07-23T14:56:45;10.32;;;4.45;;
3249;SDS011;1637;42.020;23.992;2022-07-23T14:59:12;14.48;;;4.47;;
3249;SDS011;1637;42.020;23.992;2022-07-23T15:01:39;32.00;;;4.85;;
3249;SDS011;1637;42.020;23.992;2022-07-23T15:04:08;17.30;;;5.13;;
3249;SDS011;1637;42.020;23.992;2022-07-23T15:06:35;9.52;;;4.22;;
3249;SDS011;1637;42.020;23.992;2022-07-23T15:09:02;11.20;;;4.57;;
3249;SDS011;1637;42.020;23.992;2022-07-23T15:11:29;15.52;;;4.88;;
3249;SDS011;1637;42.020;23.992;2022-07-23T15:13:57;11.45;;;3.70;;
3249;SDS011;1637;42.020;23.992;2022-07-23T15:16:24;29.15;;;13.10;;